N987SK PAMR-PAMR

Flight info

Callsign N987SK
Flight time 1h 1m
Altitude 5500
Route PAKA
Aircraft PA24/L-SDGRY/S

Departure

Time 2026-04-23 21:47
Airport Merrill Field (PAMR)

Arrival

Time 2026-04-23 22:48
Airport Merrill Field (PAMR)
Time Latitude Longitude Altitude Speed Heading
2026-04-23 21:42 61.21682 -149.84023 134 ft 0 kts 83°
2026-04-23 21:43 61.21682 -149.84020 134 ft 3 kts 86°
2026-04-23 21:43 61.21646 -149.83911 134 ft 8 kts 102°
2026-04-23 21:43 61.21645 -149.83800 134 ft 8 kts 90°
2026-04-23 21:43 61.21645 -149.83697 133 ft 7 kts 90°
2026-04-23 21:44 61.21644 -149.83611 133 ft 7 kts 90°
2026-04-23 21:44 61.21644 -149.83435 132 ft 11 kts 91°
2026-04-23 21:44 61.21645 -149.83294 132 ft 11 kts 89°
2026-04-23 21:44 61.21644 -149.83214 131 ft 0 kts 86°
2026-04-23 21:45 61.21643 -149.83145 130 ft 9 kts 120°
2026-04-23 21:46 61.21590 -149.83143 131 ft 18 kts 257°
2026-04-23 21:46 61.21589 -149.83950 150 ft 85 kts 265°
2026-04-23 21:46 61.21580 -149.85231 330 ft 90 kts 261°
2026-04-23 21:46 61.21325 -149.86354 592 ft 91 kts 203°
2026-04-23 21:47 61.20767 -149.86268 909 ft 82 kts 147°
2026-04-23 21:47 61.20271 -149.85695 1204 ft 82 kts 148°
2026-04-23 21:47 61.19808 -149.85044 1490 ft 79 kts 142°
2026-04-23 21:47 61.19362 -149.84393 1763 ft 78 kts 145°
2026-04-23 21:48 61.18925 -149.83761 2042 ft 76 kts 142°
2026-04-23 21:48 61.18510 -149.83077 2276 ft 79 kts 144°
2026-04-23 21:48 61.17966 -149.82675 2490 ft 84 kts 164°
2026-04-23 21:48 61.17380 -149.82544 2709 ft 89 kts 172°
2026-04-23 21:49 61.16763 -149.82596 2927 ft 90 kts 176°
2026-04-23 21:49 61.16138 -149.82721 3147 ft 91 kts 177°
2026-04-23 21:49 61.15503 -149.82857 3365 ft 92 kts 178°
2026-04-23 21:49 61.14847 -149.83031 3542 ft 97 kts 179°
2026-04-23 21:50 61.14134 -149.83227 3597 ft 111 kts 180°
2026-04-23 21:50 61.13322 -149.83334 3610 ft 122 kts 174°
2026-04-23 21:50 61.12457 -149.83309 3617 ft 127 kts 173°
2026-04-23 21:50 61.11567 -149.83269 3596 ft 130 kts 173°
2026-04-23 21:51 61.10662 -149.83225 3604 ft 130 kts 173°
2026-04-23 21:51 61.09754 -149.83177 3605 ft 131 kts 173°
2026-04-23 21:51 61.08851 -149.83123 3602 ft 131 kts 173°
2026-04-23 21:51 61.07935 -149.83069 3605 ft 133 kts 173°
2026-04-23 21:52 61.07010 -149.83012 3605 ft 133 kts 173°
2026-04-23 21:52 61.06086 -149.82946 3604 ft 133 kts 173°
2026-04-23 21:52 61.05159 -149.82878 3602 ft 134 kts 173°
2026-04-23 21:52 61.04226 -149.82807 3603 ft 134 kts 173°
2026-04-23 21:53 61.03295 -149.82736 3602 ft 134 kts 173°
2026-04-23 21:53 61.02359 -149.82662 3604 ft 134 kts 173°
2026-04-23 21:53 61.01423 -149.82583 3604 ft 135 kts 173°
2026-04-23 21:53 61.00488 -149.82452 3605 ft 135 kts 164°
2026-04-23 21:54 60.99745 -149.81344 3575 ft 135 kts 121°
2026-04-23 21:54 60.99354 -149.79591 3586 ft 134 kts 116°
2026-04-23 21:54 60.98999 -149.77825 3594 ft 133 kts 116°
2026-04-23 21:54 60.98660 -149.76060 3601 ft 132 kts 115°
2026-04-23 21:55 60.98326 -149.74288 3599 ft 133 kts 115°
2026-04-23 21:55 60.97994 -149.72510 3601 ft 133 kts 115°
2026-04-23 21:55 60.97667 -149.70748 3604 ft 134 kts 115°
2026-04-23 21:55 60.97334 -149.68954 3494 ft 134 kts 115°
2026-04-23 21:56 60.96969 -149.67217 3554 ft 129 kts 115°
2026-04-23 21:56 60.96613 -149.65564 3610 ft 124 kts 115°
2026-04-23 21:56 60.96289 -149.63886 3628 ft 124 kts 112°
2026-04-23 21:56 60.96008 -149.62243 3629 ft 121 kts 111°
2026-04-23 21:57 60.95706 -149.60558 3632 ft 127 kts 112°
2026-04-23 21:57 60.95399 -149.58847 3631 ft 122 kts 112°
2026-04-23 21:57 60.95131 -149.57225 3632 ft 119 kts 111°
2026-04-23 21:57 60.94860 -149.55580 3627 ft 126 kts 112°
2026-04-23 21:58 60.94579 -149.53909 3632 ft 120 kts 111°
2026-04-23 21:58 60.94315 -149.52276 3628 ft 125 kts 111°
2026-04-23 21:58 60.94026 -149.50570 3628 ft 125 kts 111°
2026-04-23 21:58 60.93756 -149.48927 3625 ft 119 kts 111°
2026-04-23 21:59 60.93485 -149.47265 3631 ft 123 kts 111°
2026-04-23 21:59 60.93203 -149.45568 3631 ft 127 kts 111°
2026-04-23 21:59 60.92907 -149.43829 3649 ft 130 kts 111°
2026-04-23 22:00 60.92296 -149.40373 3667 ft 127 kts 111°
2026-04-23 22:00 60.91998 -149.38685 3668 ft 127 kts 111°
2026-04-23 22:00 60.91688 -149.36960 3668 ft 131 kts 111°
2026-04-23 22:00 60.91383 -149.35221 3668 ft 130 kts 111°
2026-04-23 22:01 60.91089 -149.33523 3667 ft 123 kts 111°
2026-04-23 22:01 60.90807 -149.31871 3662 ft 123 kts 111°
2026-04-23 22:01 60.90521 -149.30208 3667 ft 125 kts 111°
2026-04-23 22:01 60.90224 -149.28502 3667 ft 127 kts 111°
2026-04-23 22:02 60.89916 -149.26751 3669 ft 131 kts 111°
2026-04-23 22:02 60.89607 -149.25003 3669 ft 127 kts 111°
2026-04-23 22:02 60.89311 -149.23293 3664 ft 129 kts 110°
2026-04-23 22:02 60.88998 -149.21515 3669 ft 134 kts 111°
2026-04-23 22:03 60.88683 -149.19754 3669 ft 128 kts 111°
2026-04-23 22:03 60.88366 -149.18021 3685 ft 132 kts 111°
2026-04-23 22:03 60.88062 -149.16361 3703 ft 135 kts 111°
2026-04-23 22:03 60.87745 -149.14588 3706 ft 128 kts 110°
2026-04-23 22:04 60.87437 -149.12884 3707 ft 128 kts 114°
2026-04-23 22:04 60.86941 -149.11318 3705 ft 133 kts 125°
2026-04-23 22:04 60.86389 -149.09772 3705 ft 133 kts 125°
2026-04-23 22:04 60.85847 -149.08281 3705 ft 128 kts 125°
2026-04-23 22:05 60.85303 -149.06827 3707 ft 131 kts 126°
2026-04-23 22:05 60.84697 -149.05394 3698 ft 135 kts 130°
2026-04-23 22:05 60.83991 -149.03942 3426 ft 150 kts 130°
2026-04-23 22:05 60.83299 -149.02277 3035 ft 155 kts 123°
2026-04-23 22:06 60.82720 -149.00517 2995 ft 138 kts 120°
2026-04-23 22:06 60.82204 -148.98958 2933 ft 132 kts 120°
2026-04-23 22:06 60.81662 -148.97352 2652 ft 141 kts 121°
2026-04-23 22:06 60.81318 -148.95599 2636 ft 133 kts 91°
2026-04-23 22:07 60.81720 -148.93846 2359 ft 147 kts 40°
2026-04-23 22:07 60.82709 -148.93514 2171 ft 154 kts 347°
2026-04-23 22:07 60.83541 -148.94976 1885 ft 165 kts 300°
2026-04-23 22:07 60.83729 -148.97237 1696 ft 163 kts 259°
2026-04-23 22:08 60.83181 -148.99147 1553 ft 156 kts 216°
2026-04-23 22:08 60.82197 -148.99801 1477 ft 148 kts 169°
2026-04-23 22:08 60.81403 -148.98800 1422 ft 130 kts 117°
2026-04-23 22:08 60.81401 -148.97047 1161 ft 132 kts 58°
2026-04-23 22:09 60.82235 -148.96292 889 ft 145 kts
2026-04-23 22:09 60.83116 -148.97323 773 ft 146 kts 307°
2026-04-23 22:09 60.83267 -148.99204 888 ft 135 kts 255°
2026-04-23 22:09 60.83313 -149.01071 1051 ft 134 kts 295°
2026-04-23 22:10 60.83991 -149.02177 1239 ft 122 kts 358°
2026-04-23 22:10 60.84718 -149.01540 1304 ft 118 kts 57°
2026-04-23 22:10 60.84846 -148.99951 1314 ft 116 kts 108°
2026-04-23 22:10 60.84275 -148.98892 1313 ft 122 kts 166°
2026-04-23 22:11 60.83445 -148.99421 1204 ft 139 kts 210°
2026-04-23 22:11 60.82950 -149.01140 1002 ft 153 kts 271°
2026-04-23 22:11 60.83485 -149.02842 814 ft 141 kts 338°
2026-04-23 22:11 60.84225 -149.02276 729 ft 117 kts 75°
2026-04-23 22:12 60.83908 -149.01013 667 ft 109 kts 155°
2026-04-23 22:12 60.83132 -149.01141 472 ft 115 kts 194°
2026-04-23 22:12 60.82942 -149.02260 139 ft 95 kts 307°
2026-04-23 22:12 60.83309 -149.03165 101 ft 69 kts 323°
2026-04-23 22:13 60.83588 -149.03715 97 ft 44 kts 318°
2026-04-23 22:13 60.83776 -149.04064 98 ft 31 kts 319°
2026-04-23 22:13 60.84017 -149.04489 98 ft 55 kts 322°
2026-04-23 22:13 60.84246 -149.04894 104 ft 35 kts 319°
2026-04-23 22:14 60.84385 -149.05142 107 ft 15 kts 328°
2026-04-23 22:14 60.84446 -149.05193 105 ft 0 kts 252°
2026-04-23 22:14 60.84445 -149.05195 105 ft 0 kts 239°
2026-04-23 22:18 60.84414 -149.05195 109 ft 22 kts 129°
2026-04-23 22:18 60.84264 -149.04922 130 ft 55 kts 131°
2026-04-23 22:19 60.84092 -149.03951 409 ft 65 kts 58°
2026-04-23 22:19 60.84340 -149.03520 529 ft 80 kts 26°
2026-04-23 22:19 60.84958 -149.03548 717 ft 94 kts
2026-04-23 22:19 60.85693 -149.03560 759 ft 114 kts
2026-04-23 22:20 60.86493 -149.03848 812 ft 119 kts 352°
2026-04-23 22:20 60.87266 -149.04498 1004 ft 124 kts 336°
2026-04-23 22:20 60.88011 -149.05587 1068 ft 137 kts 322°
2026-04-23 22:20 60.88693 -149.06957 1206 ft 140 kts 313°
2026-04-23 22:21 60.89313 -149.08522 1289 ft 139 kts 304°
2026-04-23 22:21 60.89911 -149.10070 1385 ft 138 kts 310°
2026-04-23 22:21 60.90554 -149.11492 1438 ft 140 kts 315°
2026-04-23 22:21 60.91263 -149.12954 1413 ft 147 kts 316°
2026-04-23 22:22 60.92018 -149.14414 1246 ft 150 kts 317°
2026-04-23 22:22 60.92913 -149.15520 1012 ft 150 kts 348°
2026-04-23 22:22 60.93865 -149.15604 856 ft 125 kts
2026-04-23 22:22 60.94688 -149.15458 739 ft 110 kts 28°
2026-04-23 22:23 60.95302 -149.14709 668 ft 96 kts 49°
2026-04-23 22:23 60.95788 -149.13870 581 ft 88 kts 52°
2026-04-23 22:23 60.96223 -149.13141 447 ft 74 kts 58°
2026-04-23 22:23 60.96566 -149.12517 312 ft 60 kts 59°
2026-04-23 22:24 60.96825 -149.12074 278 ft 35 kts 39°
2026-04-23 22:24 60.96913 -149.11930 283 ft 7 kts 142°
2026-04-23 22:24 60.96818 -149.11889 278 ft 8 kts 178°
2026-04-23 22:24 60.96812 -149.11897 278 ft 0 kts 262°
2026-04-23 22:29 60.96826 -149.11972 281 ft 14 kts 44°
2026-04-23 22:29 60.96954 -149.11854 286 ft 29 kts 40°
2026-04-23 22:29 60.97073 -149.11628 291 ft 18 kts 42°
2026-04-23 22:30 60.97126 -149.11507 297 ft 7 kts 309°
2026-04-23 22:30 60.96937 -149.11872 310 ft 57 kts 218°
2026-04-23 22:30 60.96582 -149.12527 376 ft 75 kts 198°
2026-04-23 22:30 60.96133 -149.13178 545 ft 84 kts 201°
2026-04-23 22:31 60.95640 -149.13791 738 ft 80 kts 190°
2026-04-23 22:31 60.95157 -149.14419 910 ft 84 kts 205°
2026-04-23 22:31 60.94721 -149.15169 1100 ft 86 kts 207°
2026-04-23 22:31 60.94704 -149.15201 1109 ft 86 kts 208°
2026-04-23 22:32 60.94542 -149.15508 1179 ft 88 kts 212°
2026-04-23 22:33 60.94146 -149.16576 1333 ft 100 kts 224°
2026-04-23 22:33 60.93791 -149.17881 1500 ft 109 kts 234°
2026-04-23 22:33 60.93569 -149.19518 1568 ft 127 kts 246°
2026-04-23 22:33 60.93401 -149.21196 1885 ft 113 kts 248°
2026-04-23 22:34 60.93224 -149.22830 2016 ft 121 kts 249°
2026-04-23 22:34 60.93040 -149.24492 2276 ft 119 kts 248°
2026-04-23 22:34 60.92873 -149.26177 2408 ft 127 kts 249°
2026-04-23 22:34 60.92686 -149.27910 2605 ft 124 kts 247°
2026-04-23 22:35 60.92467 -149.29595 2735 ft 122 kts 248°
2026-04-23 22:35 60.92226 -149.31268 2904 ft 123 kts 248°
2026-04-23 22:35 60.91990 -149.33001 3054 ft 132 kts 248°
2026-04-23 22:35 60.91768 -149.34806 3254 ft 133 kts 248°
2026-04-23 22:36 60.91703 -149.36777 3330 ft 159 kts 275°
2026-04-23 22:36 60.91989 -149.38856 3640 ft 139 kts 284°
2026-04-23 22:36 60.92266 -149.40707 3797 ft 138 kts 284°
2026-04-23 22:36 60.92543 -149.42536 4041 ft 130 kts 285°
2026-04-23 22:37 60.92821 -149.44385 4085 ft 141 kts 285°
2026-04-23 22:37 60.93137 -149.46425 4111 ft 159 kts 284°
2026-04-23 22:37 60.93508 -149.48655 4035 ft 169 kts 284°
2026-04-23 22:37 60.93868 -149.50935 4085 ft 164 kts 285°
2026-04-23 22:38 60.94228 -149.53248 4095 ft 176 kts 285°
2026-04-23 22:38 60.94621 -149.55645 4097 ft 172 kts 284°
2026-04-23 22:38 60.94990 -149.57959 4185 ft 172 kts 284°
2026-04-23 22:38 60.95547 -149.60102 3962 ft 177 kts 315°
2026-04-23 22:39 60.96518 -149.61561 4145 ft 163 kts 329°
2026-04-23 22:39 60.97480 -149.62910 3987 ft 176 kts 328°
2026-04-23 22:39 60.98311 -149.64863 3706 ft 185 kts 304°
2026-04-23 22:39 60.99003 -149.67084 3630 ft 181 kts 306°
2026-04-23 22:40 60.99717 -149.69069 3839 ft 168 kts 305°
2026-04-23 22:40 61.00446 -149.71020 3670 ft 176 kts 305°
2026-04-23 22:40 61.02219 -149.74775 3073 ft 190 kts 318°
2026-04-23 22:41 61.03188 -149.76587 2892 ft 184 kts 320°
2026-04-23 22:41 61.04262 -149.78010 2665 ft 185 kts 336°
2026-04-23 22:41 61.05480 -149.78755 2362 ft 183 kts 360°
2026-04-23 22:41 61.06730 -149.79088 2150 ft 179 kts 349°
2026-04-23 22:42 61.07936 -149.79524 2031 ft 174 kts 357°
2026-04-23 22:42 61.09133 -149.79746 1816 ft 175 kts 358°
2026-04-23 22:42 61.10337 -149.79982 1663 ft 172 kts 355°
2026-04-23 22:42 61.11518 -149.80204 1549 ft 169 kts 358°
2026-04-23 22:43 61.12688 -149.80165 1446 ft 166 kts
2026-04-23 22:43 61.13840 -149.80079 1317 ft 166 kts
2026-04-23 22:43 61.14985 -149.80169 1235 ft 162 kts
2026-04-23 22:43 61.16104 -149.80180 1176 ft 160 kts
2026-04-23 22:44 61.17202 -149.80205 1186 ft 156 kts
2026-04-23 22:44 61.18277 -149.80215 1192 ft 154 kts
2026-04-23 22:44 61.19347 -149.80238 1185 ft 153 kts
2026-04-23 22:44 61.20410 -149.80263 1194 ft 153 kts
2026-04-23 22:45 61.21472 -149.80302 1194 ft 152 kts
2026-04-23 22:45 61.22529 -149.80339 1191 ft 152 kts
2026-04-23 22:45 61.23585 -149.80363 1184 ft 151 kts
2026-04-23 22:45 61.24637 -149.80404 1185 ft 151 kts
2026-04-23 22:46 61.25473 -149.79635 1254 ft 139 kts 91°
2026-04-23 22:46 61.24823 -149.78754 1442 ft 124 kts 174°
2026-04-23 22:46 61.23954 -149.78701 1391 ft 125 kts 176°
2026-04-23 22:46 61.23067 -149.78692 1249 ft 130 kts 178°
2026-04-23 22:47 61.22188 -149.78748 1104 ft 121 kts 186°
2026-04-23 22:47 61.21575 -149.79491 841 ft 91 kts 243°
2026-04-23 22:47 61.21576 -149.80686 585 ft 79 kts 273°
2026-04-23 22:47 61.21587 -149.81753 363 ft 69 kts 268°
2026-04-23 22:48 61.21589 -149.82661 188 ft 58 kts 269°
2026-04-23 22:48 61.21588 -149.83379 134 ft 36 kts 271°
2026-04-23 22:48 61.21588 -149.83777 134 ft 20 kts 270°
2026-04-23 22:48 61.21589 -149.83986 135 ft 10 kts 268°
2026-04-23 22:49 61.21589 -149.84393 135 ft 58 kts 267°
2026-04-23 22:49 61.21594 -149.85465 191 ft 85 kts 276°
2026-04-23 22:49 61.21880 -149.86554 421 ft 88 kts 303°
2026-04-23 22:49 61.22273 -149.87602 626 ft 96 kts 307°
2026-04-23 22:50 61.22738 -149.88732 730 ft 112 kts 309°
2026-04-23 22:50 61.23267 -149.89946 958 ft 115 kts 312°
2026-04-23 22:50 61.23824 -149.91182 1186 ft 119 kts 312°
2026-04-23 22:50 61.24368 -149.92549 1337 ft 127 kts 299°
2026-04-23 22:51 61.24667 -149.94278 1497 ft 129 kts 269°
2026-04-23 22:51 61.24401 -149.96001 1693 ft 124 kts 229°
2026-04-23 22:51 61.23860 -149.97340 1869 ft 122 kts 221°
2026-04-23 22:51 61.23276 -149.98599 2041 ft 120 kts 218°
2026-04-23 22:52 61.22670 -149.99797 2201 ft 119 kts 215°
2026-04-23 22:52 61.22052 -150.00939 2364 ft 119 kts 213°
2026-04-23 22:52 61.21414 -150.02057 2465 ft 123 kts 212°
2026-04-23 22:52 61.20724 -150.03214 2479 ft 130 kts 211°
2026-04-23 22:53 61.20009 -150.04401 2482 ft 134 kts 211°
2026-04-23 22:53 61.19253 -150.05654 2469 ft 144 kts 212°
2026-04-23 22:53 61.18473 -150.06969 2471 ft 148 kts 213°
2026-04-23 22:53 61.17675 -150.08350 2472 ft 151 kts 213°
2026-04-23 22:54 61.16872 -150.09766 2471 ft 153 kts 214°
2026-04-23 22:54 61.16069 -150.11219 2462 ft 154 kts 215°
2026-04-23 22:54 61.15268 -150.12689 2462 ft 154 kts 215°
2026-04-23 22:54 61.14471 -150.14173 2463 ft 154 kts 216°
2026-04-23 22:55 61.13676 -150.15671 2463 ft 154 kts 216°
2026-04-23 22:55 61.12889 -150.17189 2463 ft 155 kts 217°
2026-04-23 22:55 61.12106 -150.18711 2463 ft 155 kts 217°
2026-04-23 22:55 61.11322 -150.20241 2463 ft 154 kts 217°
2026-04-23 22:56 61.10544 -150.21775 2463 ft 154 kts 217°
2026-04-23 22:56 61.09781 -150.23299 2463 ft 155 kts 218°
2026-04-23 22:56 61.09009 -150.24851 2464 ft 155 kts 218°
2026-04-23 22:56 61.08237 -150.26404 2464 ft 155 kts 218°
2026-04-23 22:57 61.07458 -150.27960 2464 ft 155 kts 218°
2026-04-23 22:57 61.06685 -150.29513 2455 ft 155 kts 218°
2026-04-23 22:57 61.05916 -150.31079 2453 ft 155 kts 217°
2026-04-23 22:57 61.05147 -150.32631 2453 ft 155 kts 217°
2026-04-23 22:58 61.04368 -150.34191 2415 ft 157 kts 217°
2026-04-23 22:58 61.03591 -150.35741 2428 ft 154 kts 217°
2026-04-23 22:58 61.02821 -150.37277 2439 ft 153 kts 217°
2026-04-23 22:58 61.02065 -150.38825 2446 ft 153 kts 217°
2026-04-23 22:59 61.01307 -150.40364 2448 ft 154 kts 217°
2026-04-23 22:59 61.00555 -150.41882 2448 ft 153 kts 218°
2026-04-23 22:59 60.99798 -150.43429 2449 ft 153 kts 217°
2026-04-23 22:59 60.99027 -150.44951 2449 ft 153 kts 217°
2026-04-23 23:00 60.98271 -150.46509 2452 ft 154 kts 217°
2026-04-23 23:00 60.97497 -150.48029 2436 ft 154 kts 217°
2026-04-23 23:00 60.96724 -150.49557 2437 ft 155 kts 218°
2026-04-23 23:00 60.95971 -150.51144 2436 ft 155 kts 219°
2026-04-23 23:01 60.95205 -150.52712 2434 ft 155 kts 216°
2026-04-23 23:01 60.94418 -150.54219 2433 ft 155 kts 215°
2026-04-23 23:01 60.93613 -150.55697 2435 ft 155 kts 214°
2026-04-23 23:01 60.92829 -150.57211 2433 ft 154 kts 216°
2026-04-23 23:02 60.92047 -150.58733 2432 ft 154 kts 217°
2026-04-23 23:02 60.91294 -150.60313 2434 ft 155 kts 218°
2026-04-23 23:02 60.90543 -150.61878 2432 ft 156 kts 217°
2026-04-23 23:02 60.89773 -150.63433 2434 ft 155 kts 217°
2026-04-23 23:03 60.89008 -150.64981 2432 ft 155 kts 222°
2026-04-23 23:03 60.88289 -150.66642 2432 ft 156 kts 218°
2026-04-23 23:03 60.87502 -150.68164 2432 ft 156 kts 214°
2026-04-23 23:03 60.86693 -150.69622 2432 ft 154 kts 214°
2026-04-23 23:04 60.85907 -150.71136 2433 ft 156 kts 217°
2026-04-23 23:04 60.85127 -150.72676 2432 ft 155 kts 217°
2026-04-23 23:04 60.84338 -150.74171 2435 ft 150 kts 216°
2026-04-23 23:04 60.83587 -150.75668 2433 ft 151 kts 220°
2026-04-23 23:05 60.82852 -150.77187 2432 ft 151 kts 218°
2026-04-23 23:05 60.82352 -150.78183 2431 ft 151 kts 216°
2026-04-23 23:05 60.81350 -150.80164 2433 ft 152 kts 216°
2026-04-23 23:05 60.80599 -150.81681 2433 ft 151 kts 219°
2026-04-23 23:06 60.80100 -150.82720 2433 ft 151 kts 218°
2026-04-23 23:06 60.79341 -150.84177 2435 ft 151 kts 218°
2026-04-23 23:06 60.78585 -150.85713 2434 ft 152 kts 216°
2026-04-23 23:06 60.77833 -150.87195 2347 ft 151 kts 214°
2026-04-23 23:07 60.76921 -150.88223 2027 ft 151 kts 189°
2026-04-23 23:07 60.75916 -150.88211 1747 ft 139 kts 156°
2026-04-23 23:07 60.75144 -150.87220 1475 ft 134 kts 153°
2026-04-23 23:07 60.74191 -150.87199 1160 ft 141 kts 182°
2026-04-23 23:08 60.74211 -150.86149 701 ft 121 kts 352°
2026-04-23 23:08 60.74985 -150.86000 252 ft 101 kts 27°
2026-04-23 23:08 60.75561 -150.85653 225 ft 79 kts 20°
2026-04-23 23:08 60.75921 -150.84875 372 ft 81 kts 56°
2026-04-23 23:09 60.76116 -150.85208 404 ft 77 kts 198°
2026-04-23 23:09 60.75654 -150.85598 261 ft 68 kts 196°
2026-04-23 23:09 60.75244 -150.85862 156 ft 49 kts 195°
2026-04-23 23:09 60.75015 -150.85993 161 ft 20 kts 195°
2026-04-23 23:10 60.74980 -150.86007 163 ft 15 kts 351°
2026-04-23 23:10 60.75126 -150.85935 156 ft 19 kts 13°
2026-04-23 23:10 60.75235 -150.85873 155 ft 16 kts 20°
2026-04-23 23:10 60.75350 -150.85793 153 ft 19 kts 20°
2026-04-23 23:11 60.75488 -150.85721 156 ft 21 kts 355°
2026-04-23 23:11 60.75597 -150.85851 163 ft 4 kts 337°
2026-04-23 23:11 60.75574 -150.85797 159 ft 25 kts 139°
2026-04-23 23:11 60.75462 -150.85649 153 ft 3 kts 91°
2026-04-23 23:12 60.75437 -150.85425 154 ft 7 kts 66°
2026-04-23 23:12 60.75501 -150.85362 157 ft 2 kts 284°
2026-04-23 23:12 60.75461 -150.85406 154 ft 0 kts 198°
2026-04-23 23:12 60.75311 -150.85486 154 ft 45 kts 188°
2026-04-23 23:13 60.75244 -150.85519 156 ft 7 kts 254°
2026-04-23 23:13 60.75341 -150.85633 156 ft 25 kts 309°
2026-04-23 23:13 60.75421 -150.85788 153 ft 17 kts 23°
2026-04-23 23:13 60.75602 -150.85642 167 ft 16 kts
2026-04-23 23:14 60.75519 -150.85679 158 ft 48 kts 193°
2026-04-23 23:14 60.75076 -150.85952 291 ft 71 kts 192°
2026-04-23 23:14 60.74554 -150.86279 553 ft 85 kts 203°
2026-04-23 23:14 60.74146 -150.87038 975 ft 83 kts 226°
2026-04-23 23:15 60.73745 -150.88095 1149 ft 102 kts 229°
2026-04-23 23:15 60.73312 -150.89394 1280 ft 119 kts 230°
2026-04-23 23:15 60.72816 -150.90845 1329 ft 134 kts 227°
2026-04-23 23:15 60.72229 -150.92426 1334 ft 144 kts 226°
2026-04-23 23:16 60.71616 -150.94105 1330 ft 150 kts 228°
2026-04-23 23:16 60.70967 -150.95795 1334 ft 152 kts 227°
2026-04-23 23:16 60.70305 -150.97508 1313 ft 153 kts 226°
2026-04-23 23:16 60.69644 -150.99226 1315 ft 155 kts 227°
2026-04-23 23:17 60.68969 -151.00949 1318 ft 156 kts 226°
2026-04-23 23:17 60.68293 -151.02697 1317 ft 157 kts 226°
2026-04-23 23:17 60.67624 -151.04463 1316 ft 157 kts 226°
2026-04-23 23:17 60.66940 -151.06205 1321 ft 157 kts 226°
2026-04-23 23:18 60.66260 -151.07940 1320 ft 156 kts 226°
2026-04-23 23:18 60.65581 -151.09665 1317 ft 156 kts 228°
2026-04-23 23:18 60.64921 -151.11399 1317 ft 157 kts 225°
2026-04-23 23:18 60.64236 -151.13120 1323 ft 156 kts 226°
2026-04-23 23:19 60.63566 -151.14854 1317 ft 155 kts 226°
2026-04-23 23:19 60.62890 -151.16567 1318 ft 155 kts 226°
2026-04-23 23:19 60.62250 -151.18241 1202 ft 146 kts 224°
2026-04-23 23:19 60.61472 -151.19544 1001 ft 145 kts 208°
2026-04-23 23:20 60.60603 -151.20549 755 ft 140 kts 210°
2026-04-23 23:20 60.59808 -151.21535 497 ft 121 kts 213°
2026-04-23 23:20 60.59158 -151.22357 333 ft 99 kts 213°
2026-04-23 23:20 60.58605 -151.23035 235 ft 89 kts 213°
2026-04-23 23:21 60.58106 -151.23637 125 ft 77 kts 214°
2026-04-23 23:21 60.57701 -151.24139 102 ft 61 kts 211°
2026-04-23 23:21 60.57395 -151.24508 102 ft 43 kts 212°
2026-04-23 23:21 60.57132 -151.24828 100 ft 44 kts 213°
2026-04-23 23:22 60.56887 -151.25132 100 ft 32 kts 207°
2026-04-23 23:22 60.56787 -151.25077 102 ft 16 kts 121°
2026-04-23 23:22 60.56731 -151.24886 102 ft 14 kts 121°
2026-04-23 23:22 60.56669 -151.24779 102 ft 11 kts 176°
2026-04-23 23:23 60.56583 -151.24855 102 ft 15 kts 211°
2026-04-23 23:23 60.56483 -151.24939 102 ft 16 kts 166°
2026-04-23 23:23 60.56416 -151.24921 102 ft 1 kts 211°